Time;durP1;ratioP1;P1;durP2;ratioP2;P2;SDS_P1;SDS_P2;PMS_P1;PMS_P2;Temp;Humidity;BMP_temperature;BMP_pressure;BME280_temperature;BME280_humidity;BME280_pressure;Samples;Min_cycle;Max_cycle;Signal;HPM_P1;HPM_P2
2023/06/17 00:00:10;;;;;;;27.77;18.17;;;15.40;1.00;;;;;;5017454;28;20693;-69
2023/06/17 00:02:36;;;;;;;28.15;17.83;;;15.40;1.00;;;;;;5019850;28;20095;-70
2023/06/17 00:05:02;;;;;;;26.35;18.08;;;15.40;1.00;;;;;;5001264;28;20045;-69
2023/06/17 00:07:29;;;;;;;28.80;20.73;;;15.30;1.00;;;;;;5017933;28;20036;-70
2023/06/17 00:09:55;;;;;;;27.45;19.88;;;15.30;3.50;;;;;;5052636;28;20111;-69
2023/06/17 00:12:21;;;;;;;29.02;19.38;;;15.20;1.00;;;;;;5021827;28;20053;-69
2023/06/17 00:14:47;;;;;;;28.05;19.73;;;15.20;1.00;;;;;;5043214;28;20041;-69
2023/06/17 00:17:14;;;;;;;29.60;21.02;;;15.20;1.00;;;;;;5017849;28;20869;-70
2023/06/17 00:19:40;;;;;;;29.77;20.23;;;15.20;30.10;;;;;;5018071;28;20486;-68
2023/06/17 00:22:08;;;;;;;32.60;21.45;;;15.10;33.00;;;;;;5044356;28;20601;-69
2023/06/17 00:24:34;;;;;;;30.38;19.58;;;15.10;42.60;;;;;;5022209;28;20056;-68
2023/06/17 00:27:00;;;;;;;32.83;21.73;;;15.10;70.10;;;;;;5000704;28;20041;-69
2023/06/17 00:29:26;;;;;;;31.52;22.30;;;15.10;68.50;;;;;;5017229;28;20609;-69
2023/06/17 00:31:52;;;;;;;28.00;20.73;;;15.00;78.80;;;;;;4984937;28;20262;-70
2023/06/17 00:34:17;;;;;;;30.35;21.40;;;15.00;91.70;;;;;;5017217;28;20053;-69
2023/06/17 00:36:46;;;;;;;29.10;21.70;;;14.90;88.90;;;;;;5018415;28;20103;-70
2023/06/17 00:39:13;;;;;;;28.88;21.35;;;14.90;81.10;;;;;;5000135;28;20084;-69
2023/06/17 00:41:39;;;;;;;30.48;22.30;;;14.90;99.90;;;;;;5036314;28;20044;-69
2023/06/17 00:44:06;;;;;;;29.38;21.25;;;14.90;99.90;;;;;;5019033;28;20375;-69
2023/06/17 00:46:40;;;;;;;33.95;21.73;;;14.80;99.90;;;;;;5026342;28;20045;-69
2023/06/17 00:49:11;;;;;;;26.85;21.45;;;14.70;99.90;;;;;;5019999;28;20102;-69
2023/06/17 00:51:37;;;;;;;30.35;22.63;;;14.80;99.90;;;;;;5052139;28;20045;-69
2023/06/17 00:54:03;;;;;;;28.67;23.02;;;14.80;99.90;;;;;;5035511;28;20053;-70
2023/06/17 00:56:31;;;;;;;31.73;22.73;;;14.80;99.90;;;;;;5004609;28;20102;-69
2023/06/17 00:58:57;;;;;;;28.08;21.30;;;14.80;99.90;;;;;;5000068;28;20211;-69
2023/06/17 01:01:26;;;;;;;29.75;22.05;;;14.80;99.90;;;;;;5050243;28;20044;-69
2023/06/17 01:03:53;;;;;;;31.38;23.02;;;14.70;99.90;;;;;;5036431;28;20047;-69
2023/06/17 01:06:28;;;;;;;33.80;22.73;;;14.70;99.90;;;;;;5067783;28;20052;-69
2023/06/17 01:09:02;;;;;;;35.03;24.25;;;14.70;99.90;;;;;;5017919;28;20067;-69
2023/06/17 01:11:30;;;;;;;31.98;23.10;;;14.70;99.90;;;;;;5001122;28;20091;-69
2023/06/17 01:13:57;;;;;;;27.83;21.98;;;14.70;99.90;;;;;;5017841;28;20447;-69
2023/06/17 01:16:25;;;;;;;31.27;24.55;;;14.70;99.90;;;;;;5017478;28;20492;-69
2023/06/17 01:18:52;;;;;;;30.75;24.67;;;14.70;99.90;;;;;;5016480;28;20131;-69
2023/06/17 01:21:18;;;;;;;30.25;24.60;;;14.90;99.90;;;;;;5001334;28;20037;-70
2023/06/17 01:23:49;;;;;;;32.72;25.77;;;14.90;99.90;;;;;;5035942;28;20052;-70
2023/06/17 01:26:15;;;;;;;30.02;24.63;;;15.00;99.90;;;;;;5019322;28;20787;-69
2023/06/17 01:28:44;;;;;;;39.78;25.92;;;15.10;99.90;;;;;;5006208;28;20147;-69
2023/06/17 01:31:12;;;;;;;38.63;25.15;;;15.10;99.90;;;;;;5018588;28;20037;-69
2023/06/17 01:33:39;;;;;;;29.52;25.42;;;15.20;99.90;;;;;;5036529;28;20379;-68
2023/06/17 01:36:12;;;;;;;33.03;23.55;;;15.30;99.90;;;;;;5017158;28;20041;-69
2023/06/17 01:38:41;;;;;;;36.45;24.60;;;15.30;99.90;;;;;;5001147;28;20083;-70
2023/06/17 01:41:21;;;;;;;32.88;24.83;;;15.40;99.90;;;;;;5029230;28;20611;-69
2023/06/17 01:43:49;;;;;;;36.63;23.67;;;15.40;99.90;;;;;;4999696;28;20231;-70
2023/06/17 01:46:15;;;;;;;32.22;24.45;;;15.40;99.90;;;;;;5017709;28;20132;-70
2023/06/17 01:48:42;;;;;;;36.53;24.35;;;15.40;99.90;;;;;;5017419;28;20041;-70
2023/06/17 01:51:08;;;;;;;38.35;26.27;;;15.50;99.90;;;;;;5038839;28;20067;-69
2023/06/17 01:53:34;;;;;;;30.17;25.17;;;15.50;99.90;;;;;;5061332;28;20441;-67
2023/06/17 01:56:00;;;;;;;31.02;24.52;;;15.50;99.90;;;;;;5000790;28;20431;-70
2023/06/17 01:58:26;;;;;;;35.55;25.50;;;15.50;99.90;;;;;;5016235;28;20091;-68
2023/06/17 02:00:52;;;;;;;34.75;24.40;;;15.50;99.90;;;;;;5016086;28;20219;-69
2023/06/17 02:03:18;;;;;;;34.55;25.17;;;15.50;99.90;;;;;;5002790;28;20448;-69
2023/06/17 02:05:44;;;;;;;36.45;24.83;;;15.60;99.90;;;;;;5049246;28;20039;-68
2023/06/17 02:08:11;;;;;;;33.47;25.25;;;15.60;99.90;;;;;;5021889;28;20171;-68
2023/06/17 02:10:37;;;;;;;33.58;25.45;;;15.60;99.90;;;;;;5035238;28;20131;-69
2023/06/17 02:13:04;;;;;;;34.75;28.00;;;15.60;99.90;;;;;;5028219;28;21211;-68
2023/06/17 02:15:30;;;;;;;32.28;26.90;;;15.60;99.90;;;;;;5016445;28;20521;-69
2023/06/17 02:17:56;;;;;;;36.55;28.73;;;15.60;99.90;;;;;;5000924;28;20041;-69
2023/06/17 02:20:23;;;;;;;36.33;28.80;;;15.60;99.90;;;;;;5016663;28;20280;-68
2023/06/17 02:22:49;;;;;;;37.90;30.25;;;15.70;99.90;;;;;;5033266;28;20037;-69
2023/06/17 02:25:15;;;;;;;35.67;30.48;;;15.70;99.90;;;;;;5016918;28;20033;-69
2023/06/17 02:27:41;;;;;;;42.50;28.67;;;15.70;99.90;;;;;;5017695;28;20275;-68
2023/06/17 02:30:09;;;;;;;38.35;29.85;;;15.70;99.90;;;;;;5018213;28;20082;-69
2023/06/17 02:32:35;;;;;;;36.10;29.98;;;15.80;99.90;;;;;;5036027;28;20040;-69
2023/06/17 02:35:02;;;;;;;39.28;29.50;;;15.70;99.90;;;;;;5038182;28;20389;-69
2023/06/17 02:37:28;;;;;;;37.95;28.38;;;15.80;99.90;;;;;;5018814;28;20044;-68
2023/06/17 02:39:54;;;;;;;39.60;28.85;;;15.70;99.90;;;;;;5016778;28;20056;-68
2023/06/17 02:42:20;;;;;;;35.85;28.05;;;15.80;99.90;;;;;;5016323;28;20079;-70
2023/06/17 02:44:46;;;;;;;32.85;26.33;;;15.80;99.90;;;;;;5015562;28;20045;-68
2023/06/17 02:47:12;;;;;;;30.05;24.25;;;15.80;99.90;;;;;;5001272;28;20219;-68
2023/06/17 02:49:37;;;;;;;33.17;24.10;;;15.70;99.90;;;;;;5016647;28;20811;-68
2023/06/17 02:52:03;;;;;;;34.78;24.25;;;15.80;99.90;;;;;;4998449;28;20056;-68
2023/06/17 02:54:29;;;;;;;34.05;25.13;;;15.80;99.90;;;;;;4999610;28;20033;-68
2023/06/17 02:56:55;;;;;;;33.13;23.45;;;15.80;99.90;;;;;;5016663;28;20128;-68
2023/06/17 02:59:22;;;;;;;32.22;23.50;;;15.80;99.90;;;;;;5016117;28;20188;-69
2023/06/17 03:01:48;;;;;;;32.67;23.90;;;15.80;99.90;;;;;;5016017;28;20112;-69
2023/06/17 03:04:14;;;;;;;31.40;22.52;;;15.80;99.90;;;;;;5035026;28;20091;-69
2023/06/17 03:06:41;;;;;;;30.95;21.40;;;15.80;99.90;;;;;;5004498;28;20282;-70
2023/06/17 03:09:10;;;;;;;32.20;21.70;;;15.80;99.90;;;;;;5020542;28;20131;-68
2023/06/17 03:11:36;;;;;;;27.40;19.88;;;15.80;99.90;;;;;;5016100;28;20247;-68
2023/06/17 03:14:03;;;;;;;29.75;21.17;;;15.80;99.90;;;;;;5004166;28;20427;-68
2023/06/17 03:16:33;;;;;;;27.73;20.08;;;15.70;99.90;;;;;;4986423;28;20092;-69
2023/06/17 03:19:00;;;;;;;29.02;20.63;;;15.80;99.90;;;;;;4999559;28;20659;-69
2023/06/17 03:21:29;;;;;;;27.92;20.05;;;15.80;99.90;;;;;;5039999;28;20384;-69
2023/06/17 03:23:59;;;;;;;27.02;21.33;;;15.70;99.90;;;;;;5015364;28;20549;-68
2023/06/17 03:26:25;;;;;;;31.10;23.50;;;15.80;99.90;;;;;;5050460;28;20037;-68
2023/06/17 03:28:53;;;;;;;34.67;24.38;;;15.80;99.90;;;;;;5019555;28;20098;-69
2023/06/17 03:31:21;;;;;;;31.08;24.35;;;15.70;99.90;;;;;;5052763;28;20293;-69
2023/06/17 03:33:53;;;;;;;34.55;25.00;;;15.80;99.90;;;;;;5005115;28;20324;-70
2023/06/17 03:36:19;;;;;;;36.60;24.70;;;15.80;99.90;;;;;;5040710;28;20135;-70
2023/06/17 03:38:45;;;;;;;28.33;22.67;;;15.70;99.90;;;;;;5019593;28;20685;-68
2023/06/17 03:41:11;;;;;;;31.67;22.50;;;15.70;99.90;;;;;;5014901;28;20360;-69
2023/06/17 03:43:37;;;;;;;28.48;22.13;;;15.80;99.90;;;;;;5004116;28;20687;-69
2023/06/17 03:46:03;;;;;;;33.83;24.08;;;15.70;99.90;;;;;;5036313;28;20450;-69
2023/06/17 03:48:28;;;;;;;30.92;22.85;;;15.70;99.90;;;;;;5020379;28;20254;-69
2023/06/17 03:50:54;;;;;;;28.67;23.35;;;15.70;99.90;;;;;;5004355;28;20055;-69
2023/06/17 03:53:20;;;;;;;35.05;23.70;;;15.80;99.90;;;;;;5021241;28;20087;-69
2023/06/17 03:55:46;;;;;;;30.70;24.15;;;15.70;99.90;;;;;;5011278;28;20099;-69
2023/06/17 03:58:14;;;;;;;35.03;24.67;;;15.80;99.90;;;;;;5071745;28;20056;-70
2023/06/17 04:00:41;;;;;;;36.22;24.88;;;15.70;99.90;;;;;;5002645;28;20467;-69
2023/06/17 04:03:07;;;;;;;33.30;25.88;;;15.70;99.90;;;;;;5019064;28;20462;-69
2023/06/17 04:05:33;;;;;;;34.83;27.10;;;15.80;99.90;;;;;;5003019;28;20081;-69
2023/06/17 04:07:59;;;;;;;35.45;26.27;;;15.80;99.90;;;;;;5024361;28;20044;-69
2023/06/17 04:10:26;;;;;;;37.50;26.63;;;15.90;99.90;;;;;;5019226;28;20510;-68
2023/06/17 04:12:52;;;;;;;39.42;28.77;;;15.80;99.90;;;;;;5019726;28;20052;-69
2023/06/17 04:15:18;;;;;;;29.15;25.67;;;15.80;99.90;;;;;;5018871;28;20158;-69
2023/06/17 04:17:44;;;;;;;34.63;26.52;;;15.80;99.90;;;;;;5018126;28;20428;-68
2023/06/17 04:20:10;;;;;;;34.13;25.98;;;15.80;99.90;;;;;;5036425;28;20098;-69
2023/06/17 04:22:40;;;;;;;33.00;25.17;;;15.80;99.90;;;;;;4996392;28;20057;-68
2023/06/17 04:25:08;;;;;;;35.88;26.85;;;15.90;99.90;;;;;;5020178;28;20481;-69
2023/06/17 04:27:36;;;;;;;37.38;25.80;;;15.90;99.90;;;;;;5062239;28;20408;-68
2023/06/17 04:30:06;;;;;;;41.40;27.92;;;15.90;99.90;;;;;;5008586;28;20458;-69
2023/06/17 04:32:35;;;;;;;32.78;25.48;;;15.90;99.90;;;;;;5025445;28;20630;-69
2023/06/17 04:35:03;;;;;;;31.80;25.95;;;15.90;99.90;;;;;;5036013;28;20157;-68
2023/06/17 04:37:30;;;;;;;31.70;25.13;;;15.90;99.90;;;;;;5030176;28;20169;-68
2023/06/17 04:39:56;;;;;;;34.92;26.45;;;15.90;99.90;;;;;;5017674;28;20503;-69
2023/06/17 04:42:22;;;;;;;35.38;25.38;;;15.90;99.90;;;;;;5023463;28;20068;-69
2023/06/17 04:44:48;;;;;;;37.10;25.40;;;15.90;99.90;;;;;;5001071;28;20166;-69
2023/06/17 04:47:16;;;;;;;35.63;24.33;;;15.90;99.90;;;;;;4999843;28;20063;-69
2023/06/17 04:49:44;;;;;;;31.88;24.80;;;16.00;99.90;;;;;;5019622;28;20041;-69
2023/06/17 04:52:10;;;;;;;38.42;25.48;;;16.00;99.90;;;;;;5029016;28;20483;-70
2023/06/17 04:54:37;;;;;;;31.90;26.00;;;16.00;99.90;;;;;;5017583;28;20033;-68
2023/06/17 04:57:04;;;;;;;34.42;26.70;;;15.90;99.90;;;;;;5045904;28;20048;-69
2023/06/17 04:59:30;;;;;;;31.88;28.05;;;16.00;99.90;;;;;;5001109;28;20037;-68
2023/06/17 05:01:56;;;;;;;33.67;28.42;;;16.00;99.90;;;;;;5016765;28;20106;-69
2023/06/17 05:04:22;;;;;;;31.38;27.17;;;16.00;90.50;;;;;;5000833;28;20301;-69
2023/06/17 05:06:48;;;;;;;42.75;28.85;;;15.90;70.80;;;;;;5036445;28;20498;-69
2023/06/17 05:09:14;;;;;;;35.60;26.92;;;15.90;27.00;;;;;;5033654;28;20251;-70
2023/06/17 05:11:42;;;;;;;29.92;25.90;;;15.90;58.80;;;;;;5032313;28;20041;-69
2023/06/17 05:14:08;;;;;;;31.65;25.67;;;16.00;32.90;;;;;;5014279;28;20116;-69
2023/06/17 05:16:33;;;;;;;32.88;25.83;;;15.90;16.40;;;;;;5022869;28;20348;-70
2023/06/17 05:18:59;;;;;;;33.45;26.27;;;15.90;12.60;;;;;;4998536;28;20269;-69
2023/06/17 05:21:25;;;;;;;33.65;28.23;;;16.00;1.00;;;;;;5021131;28;20068;-69
2023/06/17 05:23:50;;;;;;;35.97;28.42;;;16.10;1.00;;;;;;5015095;28;20421;-70
2023/06/17 05:26:17;;;;;;;37.35;29.50;;;15.90;1.00;;;;;;5014473;28;20056;-68
2023/06/17 05:28:43;;;;;;;39.05;30.40;;;15.90;1.00;;;;;;5047501;28;20495;-69
2023/06/17 05:31:09;;;;;;;40.25;33.15;;;15.90;1.00;;;;;;5048178;28;20219;-68
2023/06/17 05:33:35;;;;;;;35.63;28.98;;;16.00;1.00;;;;;;4998550;28;20110;-69
2023/06/17 05:36:02;;;;;;;35.47;28.02;;;16.00;1.00;;;;;;5032482;28;20044;-69
2023/06/17 05:38:28;;;;;;;31.52;25.42;;;16.00;1.00;;;;;;5014825;28;20091;-69
2023/06/17 05:40:53;;;;;;;32.22;27.25;;;16.10;1.00;;;;;;5014964;28;20060;-68
2023/06/17 05:43:19;;;;;;;33.47;27.48;;;16.00;1.00;;;;;;4998912;28;20037;-69
2023/06/17 05:45:45;;;;;;;34.25;26.92;;;16.10;1.00;;;;;;5014725;28;20169;-69
2023/06/17 05:48:12;;;;;;;32.55;26.92;;;16.20;1.00;;;;;;4997512;28;20060;-69
2023/06/17 05:50:38;;;;;;;31.27;23.23;;;16.30;1.00;;;;;;5033317;28;20064;-69
2023/06/17 05:53:04;;;;;;;28.10;20.63;;;16.60;1.00;;;;;;5004569;28;20478;-68
2023/06/17 05:55:30;;;;;;;28.58;21.48;;;16.60;99.90;;;;;;5014919;28;20451;-68
2023/06/17 05:57:56;;;;;;;28.17;20.08;;;16.80;99.90;;;;;;5015509;28;20047;-69
2023/06/17 06:00:22;;;;;;;30.98;21.17;;;16.90;99.90;;;;;;5015697;28;20041;-68
2023/06/17 06:02:48;;;;;;;28.13;20.88;;;16.80;99.90;;;;;;5014350;28;20048;-69
2023/06/17 06:05:14;;;;;;;28.08;20.85;;;16.80;99.90;;;;;;5014897;28;20045;-69
2023/06/17 06:07:43;;;;;;;25.98;19.25;;;16.80;99.90;;;;;;5017193;28;20041;-68
2023/06/17 06:10:12;;;;;;;26.77;18.90;;;16.80;99.90;;;;;;5027319;28;20124;-69
2023/06/17 06:12:38;;;;;;;23.13;17.08;;;16.90;99.90;;;;;;5017060;28;20044;-70
2023/06/17 06:15:06;;;;;;;25.38;18.02;;;16.90;99.90;;;;;;5032550;28;20048;-69
2023/06/17 06:17:33;;;;;;;24.63;17.75;;;17.00;99.90;;;;;;5019702;28;20434;-69
2023/06/17 06:19:59;;;;;;;25.15;17.33;;;17.10;99.90;;;;;;5015649;28;20102;-70
2023/06/17 06:22:24;;;;;;;24.63;15.73;;;17.10;99.90;;;;;;5014382;28;20045;-69
2023/06/17 06:24:50;;;;;;;21.13;14.93;;;17.20;99.90;;;;;;5022558;28;20040;-70
2023/06/17 06:27:16;;;;;;;21.80;13.93;;;17.20;99.90;;;;;;5014028;28;20044;-70
2023/06/17 06:29:42;;;;;;;21.73;13.50;;;17.20;99.90;;;;;;5047876;28;20415;-69
2023/06/17 06:32:07;;;;;;;20.13;13.15;;;17.40;99.90;;;;;;5014472;28;20873;-69
2023/06/17 06:34:33;;;;;;;20.95;14.02;;;17.50;99.90;;;;;;4998247;28;20045;-68
2023/06/17 06:36:59;;;;;;;26.25;15.48;;;17.70;99.90;;;;;;4997911;28;20049;-69
2023/06/17 06:39:26;;;;;;;20.92;14.35;;;17.70;99.90;;;;;;5014440;28;20218;-69
2023/06/17 06:41:52;;;;;;;21.08;13.63;;;17.80;99.90;;;;;;5033757;28;20037;-68
2023/06/17 06:44:19;;;;;;;23.02;14.45;;;18.00;96.60;;;;;;5051660;28;20080;-69
2023/06/17 06:46:46;;;;;;;20.52;14.45;;;18.00;57.00;;;;;;5034570;28;20317;-69
2023/06/17 06:49:12;;;;;;;18.50;13.05;;;18.00;1.00;;;;;;5022654;28;20498;-70
2023/06/17 06:51:38;;;;;;;21.60;13.88;;;18.20;7.70;;;;;;5019855;28;20084;-69
2023/06/17 06:54:04;;;;;;;19.75;13.23;;;18.30;1.00;;;;;;5007815;28;20037;-69
2023/06/17 06:56:30;;;;;;;17.90;12.75;;;18.30;1.00;;;;;;5018890;28;20136;-69
2023/06/17 06:58:56;;;;;;;16.90;12.93;;;18.30;1.00;;;;;;5020512;28;20139;-69
2023/06/17 07:01:29;;;;;;;23.42;13.43;;;18.40;1.00;;;;;;5030633;28;20106;-69
2023/06/17 07:03:55;;;;;;;19.90;12.23;;;18.40;1.00;;;;;;5012339;28;20135;-68
2023/06/17 07:06:22;;;;;;;18.00;13.13;;;18.40;1.00;;;;;;5009368;28;20348;-68
2023/06/17 07:08:48;;;;;;;16.75;12.32;;;18.50;1.00;;;;;;5059158;28;20283;-69
2023/06/17 07:11:14;;;;;;;19.45;12.13;;;18.50;1.00;;;;;;5013946;28;20236;-70
2023/06/17 07:13:40;;;;;;;19.08;12.95;;;18.70;99.90;;;;;;5043578;28;20359;-67
2023/06/17 07:16:06;;;;;;;19.40;11.75;;;18.70;99.90;;;;;;5025341;28;20064;-70
2023/06/17 07:18:31;;;;;;;16.63;11.65;;;18.80;99.90;;;;;;5026402;28;20680;-69
2023/06/17 07:20:57;;;;;;;14.45;10.73;;;18.90;99.90;;;;;;5059305;28;20435;-69
2023/06/17 07:23:25;;;;;;;18.67;11.43;;;18.80;99.90;;;;;;5025033;28;20292;-69
2023/06/17 07:25:50;;;;;;;17.83;12.10;;;18.70;99.90;;;;;;5043123;28;20484;-69
2023/06/17 07:28:16;;;;;;;18.08;11.82;;;18.60;99.90;;;;;;5026587;28;20051;-68
2023/06/17 07:30:42;;;;;;;18.23;12.00;;;18.70;99.90;;;;;;5025882;28;20324;-69
2023/06/17 07:33:07;;;;;;;18.50;12.50;;;18.70;99.90;;;;;;5024608;28;20040;-70
2023/06/17 07:35:33;;;;;;;20.27;12.85;;;18.70;99.90;;;;;;5005804;28;20045;-69
2023/06/17 07:37:59;;;;;;;19.60;12.55;;;18.70;99.90;;;;;;5033109;28;20144;-69
2023/06/17 07:40:25;;;;;;;21.02;12.73;;;18.60;99.90;;;;;;5023062;28;20045;-68
2023/06/17 07:42:51;;;;;;;19.90;13.27;;;18.80;99.90;;;;;;5019350;28;20317;-70
2023/06/17 07:45:16;;;;;;;19.83;13.45;;;18.70;99.90;;;;;;5004416;28;20101;-70
2023/06/17 07:47:42;;;;;;;18.27;12.80;;;18.80;99.90;;;;;;5010250;28;20332;-70
2023/06/17 07:50:09;;;;;;;19.25;13.27;;;18.90;99.90;;;;;;5022454;28;20115;-70
2023/06/17 07:52:35;;;;;;;19.70;13.18;;;19.20;99.90;;;;;;5022716;28;20033;-70
2023/06/17 07:55:05;;;;;;;19.77;13.00;;;19.30;99.90;;;;;;5039604;28;20048;-71
2023/06/17 07:57:30;;;;;;;21.27;13.82;;;19.40;99.90;;;;;;5039552;28;20785;-68
2023/06/17 07:59:57;;;;;;;19.83;12.95;;;19.40;99.90;;;;;;5045570;28;20424;-69
2023/06/17 08:02:23;;;;;;;19.73;13.35;;;19.40;99.90;;;;;;5026665;28;20255;-69
2023/06/17 08:04:49;;;;;;;20.85;13.88;;;19.30;99.90;;;;;;5018155;28;20673;-70
2023/06/17 08:07:15;;;;;;;22.75;12.88;;;19.40;99.90;;;;;;5001091;28;20204;-70
2023/06/17 08:09:41;;;;;;;20.08;12.30;;;19.60;99.90;;;;;;5037509;28;20048;-69
2023/06/17 08:12:07;;;;;;;19.30;13.52;;;19.70;99.90;;;;;;5071190;28;20046;-69
2023/06/17 08:14:33;;;;;;;17.50;12.05;;;19.70;99.90;;;;;;5021212;28;20044;-68
2023/06/17 08:16:58;;;;;;;17.27;12.40;;;19.80;99.90;;;;;;5071079;28;20047;-69
2023/06/17 08:19:24;;;;;;;21.27;14.85;;;20.00;99.90;;;;;;5037953;28;20053;-69
2023/06/17 08:21:50;;;;;;;16.38;12.10;;;20.20;99.90;;;;;;5038772;28;20114;-69
2023/06/17 08:24:26;;;;;;;18.30;11.48;;;20.20;99.90;;;;;;5038743;28;20040;-69
2023/06/17 08:26:53;;;;;;;15.45;10.93;;;20.40;99.90;;;;;;5023279;28;20307;-69
2023/06/17 08:29:22;;;;;;;15.77;11.38;;;20.80;99.90;;;;;;5057074;28;20486;-70
2023/06/17 08:31:50;;;;;;;18.75;11.90;;;21.20;99.90;;;;;;5040097;28;20047;-69
2023/06/17 08:34:15;;;;;;;16.30;10.55;;;21.60;99.90;;;;;;5073405;28;20063;-70
2023/06/17 08:36:45;;;;;;;16.65;10.52;;;22.00;99.90;;;;;;5056671;28;20048;-69
2023/06/17 08:39:11;;;;;;;17.08;10.88;;;22.10;99.90;;;;;;5058511;28;20048;-70
2023/06/17 08:41:39;;;;;;;14.20;10.65;;;22.00;43.40;;;;;;5020673;28;20045;-69
2023/06/17 08:44:08;;;;;;;14.45;9.68;;;21.80;58.70;;;;;;5023618;28;20486;-69
2023/06/17 08:46:34;;;;;;;13.65;10.07;;;22.10;93.60;;;;;;5071472;28;20041;-69
2023/06/17 08:49:02;;;;;;;11.30;9.10;;;21.30;25.10;;;;;;5070843;28;20406;-70
2023/06/17 08:51:28;;;;;;;14.52;9.55;;;21.00;51.50;;;;;;5022740;28;20476;-69
2023/06/17 08:53:55;;;;;;;14.88;9.00;;;21.80;17.60;;;;;;5039782;28;20048;-68
2023/06/17 08:56:21;;;;;;;14.32;9.55;;;22.20;1.00;;;;;;5054912;28;20048;-69
2023/06/17 08:58:49;;;;;;;12.52;9.52;;;22.40;1.00;;;;;;5054836;28;20044;-68
2023/06/17 09:01:17;;;;;;;15.07;9.10;;;23.00;1.00;;;;;;5020996;28;20074;-68
2023/06/17 09:03:44;;;;;;;13.98;8.70;;;23.70;1.00;;;;;;5022230;28;20105;-69
2023/06/17 09:06:24;;;;;;;13.18;8.48;;;24.10;99.90;;;;;;5022165;28;20254;-69
2023/06/17 09:08:55;;;;;;;14.32;8.70;;;24.10;99.90;;;;;;5022151;28;20055;-68
2023/06/17 09:11:22;;;;;;;14.32;8.93;;;24.10;99.90;;;;;;5072214;28;20072;-69
2023/06/17 09:13:56;;;;;;;11.88;8.43;;;24.20;99.90;;;;;;5039333;28;20044;-69
2023/06/17 09:16:30;;;;;;;13.90;9.73;;;24.40;99.90;;;;;;5022536;28;20044;-69
2023/06/17 09:18:57;;;;;;;14.52;9.00;;;24.20;99.90;;;;;;5071510;28;20052;-70
2023/06/17 09:21:24;;;;;;;13.57;8.40;;;23.70;99.90;;;;;;5020599;28;20522;-69
2023/06/17 09:23:57;;;;;;;14.63;9.68;;;24.10;99.90;;;;;;5020209;28;20063;-69
2023/06/17 09:26:30;;;;;;;10.63;7.78;;;24.40;99.90;;;;;;5070960;28;20139;-68
2023/06/17 09:29:04;;;;;;;12.40;7.80;;;24.00;99.90;;;;;;5022386;28;20037;-68
2023/06/17 09:31:33;;;;;;;14.07;8.95;;;23.90;99.90;;;;;;5021229;28;20042;-70
2023/06/17 09:34:03;;;;;;;15.93;9.75;;;23.70;99.90;;;;;;5035874;28;20090;-70
2023/06/17 09:36:29;;;;;;;14.00;8.45;;;24.00;99.90;;;;;;5070370;28;20052;-69
2023/06/17 09:38:55;;;;;;;17.40;9.25;;;24.50;99.90;;;;;;5054004;28;20040;-70
2023/06/17 09:41:23;;;;;;;13.27;8.63;;;24.40;99.90;;;;;;5039190;28;20044;-70
2023/06/17 09:43:52;;;;;;;13.15;8.65;;;24.70;99.90;;;;;;5071443;28;20540;-69
2023/06/17 09:46:46;;;;;;;12.57;8.82;;;25.00;99.90;;;;;;5038174;28;20048;-69
2023/06/17 09:49:12;;;;;;;13.48;8.57;;;25.00;99.90;;;;;;5038050;28;20127;-70
2023/06/17 09:51:39;;;;;;;13.63;9.30;;;25.00;99.90;;;;;;5037873;28;20037;-69
2023/06/17 09:54:06;;;;;;;9.55;7.43;;;25.10;99.90;;;;;;5021079;28;20068;-69
2023/06/17 09:56:33;;;;;;;11.57;7.95;;;25.10;99.90;;;;;;5037580;28;20180;-69
2023/06/17 09:59:00;;;;;;;14.57;8.48;;;25.20;99.90;;;;;;5070504;28;20127;-69
2023/06/17 10:01:30;;;;;;;13.85;8.80;;;25.50;99.90;;;;;;5027686;28;20274;-68
2023/06/17 10:04:03;;;;;;;11.82;8.25;;;25.10;99.90;;;;;;5018212;28;20048;-71
2023/06/17 10:06:30;;;;;;;12.73;8.15;;;25.20;99.90;;;;;;5054166;28;20214;-70
2023/06/17 10:08:57;;;;;;;12.35;8.27;;;25.10;99.90;;;;;;5055201;28;20438;-69
2023/06/17 10:11:25;;;;;;;12.13;7.70;;;25.50;99.90;;;;;;5021206;28;20522;-69
2023/06/17 10:14:08;;;;;;;12.77;8.52;;;25.90;99.90;;;;;;5021611;28;20052;-69
2023/06/17 10:16:36;;;;;;;;;;;25.70;99.90;;;;;;5021348;28;20263;-70
2023/06/17 10:19:05;;;;;;;14.07;7.82;;;25.50;99.90;;;;;;5028045;28;20346;-68
2023/06/17 10:21:33;;;;;;;12.60;8.05;;;25.60;99.90;;;;;;5001826;28;20421;-70
2023/06/17 10:24:01;;;;;;;15.73;8.10;;;25.80;99.90;;;;;;5034749;28;20049;-68
2023/06/17 10:26:29;;;;;;;11.10;8.70;;;25.80;99.90;;;;;;5001655;28;20080;-70
2023/06/17 10:28:54;;;;;;;11.38;8.00;;;25.90;99.90;;;;;;5051534;28;20073;-68
2023/06/17 10:31:30;;;;;;;12.00;7.47;;;25.90;99.90;;;;;;5018212;28;20128;-70
2023/06/17 10:34:02;;;;;;;14.00;8.15;;;25.60;99.90;;;;;;5036587;28;20543;-69
2023/06/17 10:36:28;;;;;;;12.50;7.72;;;25.40;99.90;;;;;;5037731;28;20252;-69
2023/06/17 10:38:54;;;;;;;11.65;7.95;;;25.60;99.90;;;;;;5004105;28;20091;-68
2023/06/17 10:41:20;;;;;;;12.00;7.50;;;25.30;99.90;;;;;;5020557;28;20641;-70
2023/06/17 10:43:49;;;;;;;12.68;8.02;;;25.40;99.90;;;;;;5053806;28;20044;-69
2023/06/17 10:46:24;;;;;;;14.00;8.20;;;25.40;99.90;;;;;;5037144;28;20045;-70
2023/06/17 10:48:50;;;;;;;15.55;7.78;;;25.70;99.90;;;;;;5037361;28;20386;-68
2023/06/17 10:51:18;;;;;;;10.88;7.70;;;25.60;99.90;;;;;;5036661;28;20044;-70
2023/06/17 10:53:51;;;;;;;12.60;7.70;;;25.50;99.90;;;;;;5069638;28;20530;-71
2023/06/17 10:56:16;;;;;;;12.32;8.05;;;25.70;99.90;;;;;;5003919;28;20097;-69
2023/06/17 10:58:47;;;;;;;13.13;7.93;;;25.70;99.90;;;;;;5020212;28;20407;-69
2023/06/17 11:01:14;;;;;;;13.93;8.10;;;25.70;99.90;;;;;;5020529;28;20043;-70
2023/06/17 11:03:40;;;;;;;12.77;7.57;;;25.70;99.90;;;;;;5054039;28;20044;-69
2023/06/17 11:06:09;;;;;;;12.50;7.45;;;25.60;99.90;;;;;;5020618;28;20333;-71
2023/06/17 11:08:36;;;;;;;13.88;8.48;;;25.80;99.90;;;;;;5053952;28;20037;-71
2023/06/17 11:11:13;;;;;;;12.20;7.63;;;25.80;99.90;;;;;;5036836;28;20042;-70
2023/06/17 11:13:42;;;;;;;12.00;7.28;;;25.60;99.90;;;;;;5054247;28;20041;-69
2023/06/17 11:16:08;;;;;;;13.65;7.60;;;25.60;99.90;;;;;;5020743;28;20511;-70
2023/06/17 11:18:39;;;;;;;14.18;7.63;;;25.80;99.90;;;;;;5020335;28;20706;-70
2023/06/17 11:21:05;;;;;;;13.98;7.80;;;26.10;99.90;;;;;;5018767;28;20124;-70
2023/06/17 11:23:32;;;;;;;12.68;7.85;;;26.10;99.90;;;;;;5039431;28;20045;-70
2023/06/17 11:25:58;;;;;;;12.98;7.28;;;26.30;99.90;;;;;;5005811;28;20471;-71
2023/06/17 11:28:24;;;;;;;12.02;7.13;;;26.30;99.90;;;;;;5003754;28;20540;-71
2023/06/17 11:30:50;;;;;;;11.82;7.07;;;26.30;99.90;;;;;;5019919;28;20487;-70
2023/06/17 11:33:20;;;;;;;13.68;7.47;;;26.40;99.90;;;;;;5022785;28;20090;-70
2023/06/17 11:35:48;;;;;;;12.18;7.32;;;26.80;99.90;;;;;;5009852;28;20040;-70
2023/06/17 11:38:16;;;;;;;12.80;6.65;;;26.70;99.90;;;;;;5005116;28;20037;-70
2023/06/17 11:40:42;;;;;;;13.80;7.65;;;26.40;99.90;;;;;;5053396;28;20063;-70
2023/06/17 11:43:11;;;;;;;12.82;7.20;;;26.50;99.90;;;;;;5018573;28;20056;-70
2023/06/17 11:45:38;;;;;;;12.57;7.30;;;26.50;99.90;;;;;;5037054;28;20875;-70
2023/06/17 11:48:07;;;;;;;12.65;7.32;;;26.60;99.90;;;;;;5048170;28;20106;-71
2023/06/17 11:50:37;;;;;;;9.98;6.55;;;26.60;99.90;;;;;;5014747;28;20041;-70
2023/06/17 11:53:03;;;;;;;10.20;6.80;;;26.30;99.90;;;;;;5007464;28;20506;-70
2023/06/17 11:55:34;;;;;;;10.30;7.00;;;26.40;99.90;;;;;;5039412;28;20078;-69
2023/06/17 11:58:03;;;;;;;13.38;7.00;;;26.40;99.90;;;;;;5008152;28;20048;-70
2023/06/17 12:00:30;;;;;;;12.55;7.28;;;26.20;99.90;;;;;;5024248;28;20614;-70
2023/06/17 12:02:59;;;;;;;11.85;6.85;;;26.20;99.90;;;;;;5009623;28;20088;-70
2023/06/17 12:05:28;;;;;;;11.15;6.75;;;25.90;99.90;;;;;;5041717;28;20037;-69
2023/06/17 12:07:59;;;;;;;12.73;7.20;;;25.40;99.90;;;;;;5023856;28;20163;-69
2023/06/17 12:10:26;;;;;;;13.05;6.80;;;25.80;99.90;;;;;;5032950;28;20541;-71
2023/06/17 12:12:56;;;;;;;13.57;7.57;;;25.60;99.90;;;;;;5016897;28;20041;-70
2023/06/17 12:15:27;;;;;;;11.05;6.95;;;25.50;99.90;;;;;;5010066;28;20099;-70
2023/06/17 12:17:54;;;;;;;11.38;7.15;;;25.30;99.90;;;;;;5009614;28;20160;-71
2023/06/17 12:20:21;;;;;;;13.65;7.30;;;25.60;99.90;;;;;;5025428;28;20056;-69
2023/06/17 12:22:52;;;;;;;15.27;9.50;;;25.40;99.90;;;;;;5006683;28;20506;-71
2023/06/17 12:25:18;;;;;;;13.43;7.03;;;25.30;99.90;;;;;;5026837;28;20056;-69
2023/06/17 12:27:44;;;;;;;13.10;7.28;;;25.40;99.90;;;;;;5042908;28;21105;-70
2023/06/17 12:30:10;;;;;;;13.55;7.25;;;25.40;99.90;;;;;;5031548;28;20036;-70